sensor_id;sensor_type;location;lat;lon;timestamp;P1;durP1;ratioP1;P2;durP2;ratioP2
20541;SDS011;10429;50.956;9.786;2022-09-09T00:00:20;6.40;;;2.60;;
20541;SDS011;10429;50.956;9.786;2022-09-09T00:02:54;3.00;;;2.50;;
20541;SDS011;10429;50.956;9.786;2022-09-09T00:05:27;3.60;;;2.40;;
20541;SDS011;10429;50.956;9.786;2022-09-09T00:07:56;3.00;;;2.30;;
20541;SDS011;10429;50.956;9.786;2022-09-09T00:10:31;9.30;;;2.73;;
20541;SDS011;10429;50.956;9.786;2022-09-09T00:15:54;5.60;;;2.50;;
20541;SDS011;10429;50.956;9.786;2022-09-09T00:23:32;4.67;;;2.60;;
20541;SDS011;10429;50.956;9.786;2022-09-09T00:28:28;8.67;;;2.23;;
20541;SDS011;10429;50.956;9.786;2022-09-09T00:30:59;5.07;;;2.20;;
20541;SDS011;10429;50.956;9.786;2022-09-09T00:33:26;4.13;;;1.93;;
20541;SDS011;10429;50.956;9.786;2022-09-09T00:35:58;4.53;;;2.47;;
20541;SDS011;10429;50.956;9.786;2022-09-09T00:43:30;6.07;;;2.93;;
20541;SDS011;10429;50.956;9.786;2022-09-09T00:48:42;7.23;;;2.90;;
20541;SDS011;10429;50.956;9.786;2022-09-09T00:51:17;4.53;;;2.40;;
20541;SDS011;10429;50.956;9.786;2022-09-09T00:56:53;5.43;;;2.63;;
20541;SDS011;10429;50.956;9.786;2022-09-09T01:01:51;4.27;;;2.30;;
20541;SDS011;10429;50.956;9.786;2022-09-09T01:04:22;3.63;;;2.53;;
20541;SDS011;10429;50.956;9.786;2022-09-09T01:06:50;6.37;;;2.90;;
20541;SDS011;10429;50.956;9.786;2022-09-09T01:09:29;4.43;;;2.00;;
20541;SDS011;10429;50.956;9.786;2022-09-09T01:12:02;6.23;;;2.37;;
20541;SDS011;10429;50.956;9.786;2022-09-09T01:17:01;3.80;;;2.30;;
20541;SDS011;10429;50.956;9.786;2022-09-09T01:19:37;8.13;;;2.43;;
20541;SDS011;10429;50.956;9.786;2022-09-09T01:22:47;3.37;;;2.17;;
20541;SDS011;10429;50.956;9.786;2022-09-09T01:27:36;3.33;;;2.17;;
20541;SDS011;10429;50.956;9.786;2022-09-09T01:30:08;6.87;;;2.23;;
20541;SDS011;10429;50.956;9.786;2022-09-09T01:32:39;4.67;;;2.40;;
20541;SDS011;10429;50.956;9.786;2022-09-09T01:35:07;4.83;;;2.40;;
20541;SDS011;10429;50.956;9.786;2022-09-09T01:37:35;9.23;;;2.87;;
20541;SDS011;10429;50.956;9.786;2022-09-09T01:40:01;3.70;;;2.53;;
20541;SDS011;10429;50.956;9.786;2022-09-09T01:42:27;4.93;;;2.50;;
20541;SDS011;10429;50.956;9.786;2022-09-09T01:44:53;3.43;;;2.60;;
20541;SDS011;10429;50.956;9.786;2022-09-09T01:47:20;3.17;;;2.20;;
20541;SDS011;10429;50.956;9.786;2022-09-09T01:49:46;4.27;;;2.30;;
20541;SDS011;10429;50.956;9.786;2022-09-09T01:52:12;4.23;;;2.20;;
20541;SDS011;10429;50.956;9.786;2022-09-09T01:54:38;4.57;;;2.33;;
20541;SDS011;10429;50.956;9.786;2022-09-09T02:02:25;5.90;;;2.90;;
20541;SDS011;10429;50.956;9.786;2022-09-09T02:04:54;5.93;;;2.50;;
20541;SDS011;10429;50.956;9.786;2022-09-09T02:10:28;3.40;;;2.13;;
20541;SDS011;10429;50.956;9.786;2022-09-09T02:18:01;2.40;;;2.17;;
20541;SDS011;10429;50.956;9.786;2022-09-09T02:20:30;4.77;;;2.50;;
20541;SDS011;10429;50.956;9.786;2022-09-09T02:22:58;5.53;;;2.47;;
20541;SDS011;10429;50.956;9.786;2022-09-09T02:25:25;5.47;;;2.43;;
20541;SDS011;10429;50.956;9.786;2022-09-09T02:27:52;4.47;;;2.30;;
20541;SDS011;10429;50.956;9.786;2022-09-09T02:30:18;4.90;;;2.63;;
20541;SDS011;10429;50.956;9.786;2022-09-09T02:32:45;6.33;;;2.80;;
20541;SDS011;10429;50.956;9.786;2022-09-09T02:35:14;5.97;;;2.70;;
20541;SDS011;10429;50.956;9.786;2022-09-09T02:37:41;3.53;;;2.50;;
20541;SDS011;10429;50.956;9.786;2022-09-09T02:40:09;5.47;;;2.77;;
20541;SDS011;10429;50.956;9.786;2022-09-09T02:42:39;5.17;;;3.00;;
20541;SDS011;10429;50.956;9.786;2022-09-09T02:45:06;4.20;;;2.80;;
20541;SDS011;10429;50.956;9.786;2022-09-09T02:47:38;5.10;;;2.57;;
20541;SDS011;10429;50.956;9.786;2022-09-09T02:50:15;5.37;;;2.93;;
20541;SDS011;10429;50.956;9.786;2022-09-09T02:57:56;4.77;;;2.40;;
20541;SDS011;10429;50.956;9.786;2022-09-09T03:00:24;4.67;;;2.30;;
20541;SDS011;10429;50.956;9.786;2022-09-09T03:02:53;6.23;;;2.37;;
20541;SDS011;10429;50.956;9.786;2022-09-09T03:05:20;4.80;;;2.47;;
20541;SDS011;10429;50.956;9.786;2022-09-09T03:07:46;3.90;;;2.23;;
20541;SDS011;10429;50.956;9.786;2022-09-09T03:10:13;4.07;;;2.73;;
20541;SDS011;10429;50.956;9.786;2022-09-09T03:12:39;4.07;;;2.80;;
20541;SDS011;10429;50.956;9.786;2022-09-09T03:15:05;4.83;;;2.70;;
20541;SDS011;10429;50.956;9.786;2022-09-09T03:17:31;2.97;;;2.30;;
20541;SDS011;10429;50.956;9.786;2022-09-09T03:19:59;6.00;;;2.73;;
20541;SDS011;10429;50.956;9.786;2022-09-09T03:22:29;5.87;;;3.00;;
20541;SDS011;10429;50.956;9.786;2022-09-09T03:24:55;4.87;;;2.77;;
20541;SDS011;10429;50.956;9.786;2022-09-09T03:27:21;4.73;;;2.90;;
20541;SDS011;10429;50.956;9.786;2022-09-09T03:29:52;5.57;;;2.93;;
20541;SDS011;10429;50.956;9.786;2022-09-09T03:32:18;4.17;;;2.50;;
20541;SDS011;10429;50.956;9.786;2022-09-09T03:34:44;6.63;;;2.90;;
20541;SDS011;10429;50.956;9.786;2022-09-09T03:37:14;5.50;;;2.60;;
20541;SDS011;10429;50.956;9.786;2022-09-09T03:39:40;7.87;;;2.80;;
20541;SDS011;10429;50.956;9.786;2022-09-09T03:42:06;9.50;;;2.60;;
20541;SDS011;10429;50.956;9.786;2022-09-09T03:44:32;4.23;;;3.00;;
20541;SDS011;10429;50.956;9.786;2022-09-09T03:46:58;4.83;;;2.33;;
20541;SDS011;10429;50.956;9.786;2022-09-09T03:49:25;4.93;;;2.80;;
20541;SDS011;10429;50.956;9.786;2022-09-09T03:51:55;4.07;;;2.63;;
20541;SDS011;10429;50.956;9.786;2022-09-09T03:54:23;4.50;;;2.70;;
20541;SDS011;10429;50.956;9.786;2022-09-09T03:56:49;4.77;;;2.60;;
20541;SDS011;10429;50.956;9.786;2022-09-09T03:59:15;4.97;;;2.60;;
20541;SDS011;10429;50.956;9.786;2022-09-09T04:01:44;5.63;;;2.60;;
20541;SDS011;10429;50.956;9.786;2022-09-09T04:04:10;7.20;;;3.13;;
20541;SDS011;10429;50.956;9.786;2022-09-09T04:06:37;8.37;;;3.07;;
20541;SDS011;10429;50.956;9.786;2022-09-09T04:09:03;2.70;;;2.50;;
20541;SDS011;10429;50.956;9.786;2022-09-09T04:11:29;3.50;;;2.10;;
20541;SDS011;10429;50.956;9.786;2022-09-09T04:13:55;4.20;;;2.40;;
20541;SDS011;10429;50.956;9.786;2022-09-09T04:16:21;3.27;;;2.43;;
20541;SDS011;10429;50.956;9.786;2022-09-09T04:18:47;4.17;;;2.67;;
20541;SDS011;10429;50.956;9.786;2022-09-09T04:21:13;5.97;;;2.50;;
20541;SDS011;10429;50.956;9.786;2022-09-09T04:23:41;4.53;;;2.40;;
20541;SDS011;10429;50.956;9.786;2022-09-09T04:26:09;4.20;;;2.33;;
20541;SDS011;10429;50.956;9.786;2022-09-09T04:28:36;2.77;;;2.53;;
20541;SDS011;10429;50.956;9.786;2022-09-09T04:31:06;5.13;;;2.50;;
20541;SDS011;10429;50.956;9.786;2022-09-09T04:33:32;4.87;;;2.20;;
20541;SDS011;10429;50.956;9.786;2022-09-09T04:35:58;5.90;;;2.40;;
20541;SDS011;10429;50.956;9.786;2022-09-09T04:38:24;3.87;;;2.50;;
20541;SDS011;10429;50.956;9.786;2022-09-09T04:40:51;5.47;;;2.80;;
20541;SDS011;10429;50.956;9.786;2022-09-09T04:43:19;4.43;;;2.63;;
20541;SDS011;10429;50.956;9.786;2022-09-09T04:45:49;2.63;;;2.20;;
20541;SDS011;10429;50.956;9.786;2022-09-09T04:48:16;7.73;;;2.60;;
20541;SDS011;10429;50.956;9.786;2022-09-09T04:50:42;4.20;;;2.20;;
20541;SDS011;10429;50.956;9.786;2022-09-09T04:53:08;3.77;;;2.30;;
20541;SDS011;10429;50.956;9.786;2022-09-09T04:55:34;5.13;;;2.37;;
20541;SDS011;10429;50.956;9.786;2022-09-09T04:58:07;5.27;;;2.40;;
20541;SDS011;10429;50.956;9.786;2022-09-09T05:00:34;3.00;;;2.07;;
20541;SDS011;10429;50.956;9.786;2022-09-09T05:03:04;3.23;;;2.20;;
20541;SDS011;10429;50.956;9.786;2022-09-09T05:05:31;5.77;;;2.30;;
20541;SDS011;10429;50.956;9.786;2022-09-09T05:08:05;5.10;;;2.10;;
20541;SDS011;10429;50.956;9.786;2022-09-09T05:10:32;6.23;;;2.40;;
20541;SDS011;10429;50.956;9.786;2022-09-09T05:12:58;5.50;;;2.47;;
20541;SDS011;10429;50.956;9.786;2022-09-09T05:15:24;3.10;;;2.13;;
20541;SDS011;10429;50.956;9.786;2022-09-09T05:17:50;5.17;;;2.20;;
20541;SDS011;10429;50.956;9.786;2022-09-09T05:20:20;3.63;;;1.87;;
20541;SDS011;10429;50.956;9.786;2022-09-09T05:22:46;3.20;;;2.10;;
20541;SDS011;10429;50.956;9.786;2022-09-09T05:25:14;4.57;;;2.60;;
20541;SDS011;10429;50.956;9.786;2022-09-09T05:27:40;3.10;;;1.83;;
20541;SDS011;10429;50.956;9.786;2022-09-09T05:30:07;5.20;;;2.40;;
20541;SDS011;10429;50.956;9.786;2022-09-09T05:32:33;4.30;;;2.10;;
20541;SDS011;10429;50.956;9.786;2022-09-09T05:34:59;3.13;;;2.40;;
20541;SDS011;10429;50.956;9.786;2022-09-09T05:37:26;4.00;;;2.37;;
20541;SDS011;10429;50.956;9.786;2022-09-09T05:39:52;6.00;;;2.47;;
20541;SDS011;10429;50.956;9.786;2022-09-09T05:42:21;4.47;;;2.30;;
20541;SDS011;10429;50.956;9.786;2022-09-09T05:44:47;4.47;;;2.27;;
20541;SDS011;10429;50.956;9.786;2022-09-09T05:47:13;6.57;;;2.90;;
20541;SDS011;10429;50.956;9.786;2022-09-09T05:49:40;3.90;;;2.77;;
20541;SDS011;10429;50.956;9.786;2022-09-09T05:52:06;5.93;;;2.83;;
20541;SDS011;10429;50.956;9.786;2022-09-09T05:54:32;7.90;;;2.73;;
20541;SDS011;10429;50.956;9.786;2022-09-09T05:56:58;5.90;;;2.80;;
20541;SDS011;10429;50.956;9.786;2022-09-09T05:59:24;5.17;;;2.90;;
20541;SDS011;10429;50.956;9.786;2022-09-09T06:01:50;6.30;;;2.80;;
20541;SDS011;10429;50.956;9.786;2022-09-09T06:04:17;5.30;;;3.00;;
20541;SDS011;10429;50.956;9.786;2022-09-09T06:06:43;8.40;;;2.73;;
20541;SDS011;10429;50.956;9.786;2022-09-09T06:09:09;3.73;;;2.20;;
20541;SDS011;10429;50.956;9.786;2022-09-09T06:11:37;4.80;;;2.23;;
20541;SDS011;10429;50.956;9.786;2022-09-09T06:14:03;4.80;;;2.30;;
20541;SDS011;10429;50.956;9.786;2022-09-09T06:16:30;4.57;;;2.33;;
20541;SDS011;10429;50.956;9.786;2022-09-09T06:18:59;4.77;;;2.60;;
20541;SDS011;10429;50.956;9.786;2022-09-09T06:21:27;2.93;;;2.10;;
20541;SDS011;10429;50.956;9.786;2022-09-09T06:23:53;4.83;;;2.20;;
20541;SDS011;10429;50.956;9.786;2022-09-09T06:26:20;3.30;;;2.00;;
20541;SDS011;10429;50.956;9.786;2022-09-09T06:28:47;3.77;;;1.90;;
20541;SDS011;10429;50.956;9.786;2022-09-09T06:31:17;2.77;;;1.70;;
20541;SDS011;10429;50.956;9.786;2022-09-09T06:33:46;2.80;;;1.80;;
20541;SDS011;10429;50.956;9.786;2022-09-09T06:38:39;2.60;;;1.70;;
20541;SDS011;10429;50.956;9.786;2022-09-09T06:41:05;3.33;;;1.77;;
20541;SDS011;10429;50.956;9.786;2022-09-09T06:43:35;6.70;;;1.83;;
20541;SDS011;10429;50.956;9.786;2022-09-09T06:46:03;2.47;;;1.77;;
20541;SDS011;10429;50.956;9.786;2022-09-09T06:48:29;4.87;;;1.83;;
20541;SDS011;10429;50.956;9.786;2022-09-09T06:51:09;3.70;;;2.10;;
20541;SDS011;10429;50.956;9.786;2022-09-09T06:53:39;3.40;;;1.70;;
20541;SDS011;10429;50.956;9.786;2022-09-09T06:56:19;5.00;;;1.90;;
20541;SDS011;10429;50.956;9.786;2022-09-09T06:58:46;2.10;;;1.50;;
20541;SDS011;10429;50.956;9.786;2022-09-09T07:01:17;5.10;;;1.80;;
20541;SDS011;10429;50.956;9.786;2022-09-09T07:03:48;3.07;;;1.57;;
20541;SDS011;10429;50.956;9.786;2022-09-09T07:06:16;6.43;;;1.97;;
20541;SDS011;10429;50.956;9.786;2022-09-09T07:08:43;5.33;;;1.83;;
20541;SDS011;10429;50.956;9.786;2022-09-09T07:11:09;3.30;;;1.53;;
20541;SDS011;10429;50.956;9.786;2022-09-09T07:13:36;3.33;;;1.70;;
20541;SDS011;10429;50.956;9.786;2022-09-09T07:16:03;2.00;;;1.67;;
20541;SDS011;10429;50.956;9.786;2022-09-09T07:18:32;3.40;;;1.70;;
20541;SDS011;10429;50.956;9.786;2022-09-09T07:20:58;3.77;;;2.07;;
20541;SDS011;10429;50.956;9.786;2022-09-09T07:23:24;1.90;;;1.60;;
20541;SDS011;10429;50.956;9.786;2022-09-09T07:25:51;4.40;;;2.20;;
20541;SDS011;10429;50.956;9.786;2022-09-09T07:28:17;3.90;;;1.50;;
20541;SDS011;10429;50.956;9.786;2022-09-09T07:30:52;3.40;;;1.60;;
20541;SDS011;10429;50.956;9.786;2022-09-09T07:33:18;5.60;;;2.20;;
20541;SDS011;10429;50.956;9.786;2022-09-09T07:35:45;2.63;;;1.63;;
20541;SDS011;10429;50.956;9.786;2022-09-09T07:38:11;4.33;;;1.80;;
20541;SDS011;10429;50.956;9.786;2022-09-09T07:40:37;2.87;;;1.73;;
20541;SDS011;10429;50.956;9.786;2022-09-09T07:43:03;5.40;;;1.90;;
20541;SDS011;10429;50.956;9.786;2022-09-09T07:45:29;3.93;;;1.87;;
20541;SDS011;10429;50.956;9.786;2022-09-09T07:47:59;3.13;;;1.97;;
20541;SDS011;10429;50.956;9.786;2022-09-09T07:50:26;2.80;;;1.70;;
20541;SDS011;10429;50.956;9.786;2022-09-09T07:52:52;4.60;;;1.90;;
20541;SDS011;10429;50.956;9.786;2022-09-09T07:55:18;4.30;;;1.60;;
20541;SDS011;10429;50.956;9.786;2022-09-09T07:57:44;3.27;;;1.87;;
20541;SDS011;10429;50.956;9.786;2022-09-09T08:00:11;3.13;;;1.50;;
20541;SDS011;10429;50.956;9.786;2022-09-09T08:02:39;4.27;;;1.60;;
20541;SDS011;10429;50.956;9.786;2022-09-09T08:05:05;4.67;;;1.50;;
20541;SDS011;10429;50.956;9.786;2022-09-09T08:07:31;2.33;;;1.37;;
20541;SDS011;10429;50.956;9.786;2022-09-09T08:09:57;3.87;;;1.63;;
20541;SDS011;10429;50.956;9.786;2022-09-09T08:12:23;3.77;;;1.70;;
20541;SDS011;10429;50.956;9.786;2022-09-09T08:14:49;2.23;;;1.50;;
20541;SDS011;10429;50.956;9.786;2022-09-09T08:17:19;3.63;;;1.60;;
20541;SDS011;10429;50.956;9.786;2022-09-09T08:19:45;4.77;;;1.70;;
20541;SDS011;10429;50.956;9.786;2022-09-09T08:22:11;7.10;;;1.87;;
20541;SDS011;10429;50.956;9.786;2022-09-09T08:24:37;3.60;;;1.43;;
20541;SDS011;10429;50.956;9.786;2022-09-09T08:27:04;4.70;;;1.67;;
20541;SDS011;10429;50.956;9.786;2022-09-09T08:29:30;3.60;;;1.63;;
20541;SDS011;10429;50.956;9.786;2022-09-09T08:31:59;3.07;;;1.80;;
20541;SDS011;10429;50.956;9.786;2022-09-09T08:34:26;2.67;;;1.60;;
20541;SDS011;10429;50.956;9.786;2022-09-09T08:36:53;4.17;;;1.70;;
20541;SDS011;10429;50.956;9.786;2022-09-09T08:39:20;2.70;;;1.70;;
20541;SDS011;10429;50.956;9.786;2022-09-09T08:49:24;3.30;;;1.23;;
20541;SDS011;10429;50.956;9.786;2022-09-09T08:51:56;2.47;;;1.50;;
20541;SDS011;10429;50.956;9.786;2022-09-09T08:54:23;3.97;;;1.70;;
20541;SDS011;10429;50.956;9.786;2022-09-09T08:56:49;4.07;;;1.70;;
20541;SDS011;10429;50.956;9.786;2022-09-09T08:59:18;2.67;;;1.30;;
20541;SDS011;10429;50.956;9.786;2022-09-09T09:01:54;3.70;;;1.30;;
20541;SDS011;10429;50.956;9.786;2022-09-09T09:09:46;4.43;;;1.60;;
20541;SDS011;10429;50.956;9.786;2022-09-09T09:12:19;5.23;;;1.53;;
20541;SDS011;10429;50.956;9.786;2022-09-09T09:14:46;4.00;;;1.60;;
20541;SDS011;10429;50.956;9.786;2022-09-09T09:17:20;3.43;;;1.50;;
20541;SDS011;10429;50.956;9.786;2022-09-09T09:19:47;4.77;;;1.77;;
20541;SDS011;10429;50.956;9.786;2022-09-09T09:22:32;4.40;;;1.70;;
20541;SDS011;10429;50.956;9.786;2022-09-09T09:27:36;3.50;;;1.57;;
20541;SDS011;10429;50.956;9.786;2022-09-09T09:30:24;4.23;;;1.60;;
20541;SDS011;10429;50.956;9.786;2022-09-09T09:33:53;4.63;;;1.70;;
20541;SDS011;10429;50.956;9.786;2022-09-09T09:35:49;3.67;;;1.77;;
20541;SDS011;10429;50.956;9.786;2022-09-09T09:38:20;3.17;;;1.33;;
20541;SDS011;10429;50.956;9.786;2022-09-09T09:40:54;4.23;;;1.43;;
20541;SDS011;10429;50.956;9.786;2022-09-09T09:43:34;3.53;;;1.60;;
20541;SDS011;10429;50.956;9.786;2022-09-09T09:46:00;7.07;;;1.77;;
20541;SDS011;10429;50.956;9.786;2022-09-09T09:48:28;2.90;;;1.50;;
20541;SDS011;10429;50.956;9.786;2022-09-09T09:51:04;4.30;;;1.50;;
20541;SDS011;10429;50.956;9.786;2022-09-09T09:53:32;5.33;;;1.73;;
20541;SDS011;10429;50.956;9.786;2022-09-09T09:56:03;2.67;;;1.43;;
20541;SDS011;10429;50.956;9.786;2022-09-09T09:58:32;2.77;;;1.53;;
20541;SDS011;10429;50.956;9.786;2022-09-09T10:00:59;4.43;;;1.57;;
20541;SDS011;10429;50.956;9.786;2022-09-09T10:05:52;3.00;;;1.50;;
20541;SDS011;10429;50.956;9.786;2022-09-09T10:08:18;4.60;;;1.60;;
20541;SDS011;10429;50.956;9.786;2022-09-09T10:13:36;4.10;;;1.60;;
20541;SDS011;10429;50.956;9.786;2022-09-09T10:16:10;3.17;;;1.53;;
20541;SDS011;10429;50.956;9.786;2022-09-09T10:36:32;2.10;;;1.13;;
20541;SDS011;10429;50.956;9.786;2022-09-09T10:39:03;4.70;;;1.63;;
20541;SDS011;10429;50.956;9.786;2022-09-09T10:41:44;3.33;;;1.50;;
20541;SDS011;10429;50.956;9.786;2022-09-09T10:57:04;4.47;;;1.30;;
20541;SDS011;10429;50.956;9.786;2022-09-09T10:59:33;4.50;;;1.60;;
20541;SDS011;10429;50.956;9.786;2022-09-09T11:04:42;2.43;;;1.37;;
20541;SDS011;10429;50.956;9.786;2022-09-09T11:07:12;4.93;;;1.63;;
20541;SDS011;10429;50.956;9.786;2022-09-09T11:09:43;3.87;;;1.63;;
20541;SDS011;10429;50.956;9.786;2022-09-09T11:12:12;4.40;;;1.53;;
20541;SDS011;10429;50.956;9.786;2022-09-09T11:17:20;2.87;;;1.20;;
20541;SDS011;10429;50.956;9.786;2022-09-09T11:19:47;6.03;;;1.70;;
20541;SDS011;10429;50.956;9.786;2022-09-09T11:24:59;3.53;;;1.30;;
20541;SDS011;10429;50.956;9.786;2022-09-09T11:40:27;5.27;;;1.53;;
20541;SDS011;10429;50.956;9.786;2022-09-09T11:43:05;2.67;;;1.30;;
20541;SDS011;10429;50.956;9.786;2022-09-09T11:45:35;4.23;;;1.50;;
20541;SDS011;10429;50.956;9.786;2022-09-09T11:48:03;2.67;;;1.40;;
20541;SDS011;10429;50.956;9.786;2022-09-09T11:50:37;2.93;;;1.20;;
20541;SDS011;10429;50.956;9.786;2022-09-09T11:53:17;2.93;;;1.37;;
20541;SDS011;10429;50.956;9.786;2022-09-09T11:55:47;7.27;;;1.43;;
20541;SDS011;10429;50.956;9.786;2022-09-09T11:58:15;2.10;;;1.30;;
20541;SDS011;10429;50.956;9.786;2022-09-09T12:00:43;3.50;;;1.00;;
20541;SDS011;10429;50.956;9.786;2022-09-09T12:05:56;4.00;;;1.13;;
20541;SDS011;10429;50.956;9.786;2022-09-09T12:08:32;2.60;;;1.10;;
20541;SDS011;10429;50.956;9.786;2022-09-09T12:11:01;2.07;;;0.90;;
20541;SDS011;10429;50.956;9.786;2022-09-09T12:13:30;3.00;;;0.93;;
20541;SDS011;10429;50.956;9.786;2022-09-09T12:15:57;1.17;;;0.90;;
20541;SDS011;10429;50.956;9.786;2022-09-09T12:18:45;2.60;;;0.80;;
20541;SDS011;10429;50.956;9.786;2022-09-09T12:21:21;3.50;;;1.00;;
20541;SDS011;10429;50.956;9.786;2022-09-09T12:23:55;3.50;;;1.10;;
20541;SDS011;10429;50.956;9.786;2022-09-09T12:33:55;1.90;;;1.10;;
20541;SDS011;10429;50.956;9.786;2022-09-09T12:36:29;2.73;;;0.90;;
20541;SDS011;10429;50.956;9.786;2022-09-09T12:38:56;0.97;;;0.83;;
20541;SDS011;10429;50.956;9.786;2022-09-09T12:41:25;1.43;;;0.80;;
20541;SDS011;10429;50.956;9.786;2022-09-09T12:44:03;1.60;;;1.00;;
20541;SDS011;10429;50.956;9.786;2022-09-09T12:46:35;1.50;;;0.73;;
20541;SDS011;10429;50.956;9.786;2022-09-09T12:49:02;1.33;;;1.10;;
20541;SDS011;10429;50.956;9.786;2022-09-09T12:51:30;3.97;;;0.90;;
20541;SDS011;10429;50.956;9.786;2022-09-09T12:53:59;1.30;;;0.90;;
20541;SDS011;10429;50.956;9.786;2022-09-09T12:56:26;2.60;;;1.00;;
20541;SDS011;10429;50.956;9.786;2022-09-09T12:58:53;1.83;;;1.10;;
20541;SDS011;10429;50.956;9.786;2022-09-09T13:01:24;3.30;;;1.37;;
20541;SDS011;10429;50.956;9.786;2022-09-09T13:03:51;1.80;;;1.03;;
20541;SDS011;10429;50.956;9.786;2022-09-09T13:06:25;1.67;;;0.70;;
20541;SDS011;10429;50.956;9.786;2022-09-09T13:08:51;2.63;;;1.00;;
20541;SDS011;10429;50.956;9.786;2022-09-09T13:11:38;1.47;;;0.87;;
20541;SDS011;10429;50.956;9.786;2022-09-09T13:14:12;1.60;;;1.00;;
20541;SDS011;10429;50.956;9.786;2022-09-09T13:16:43;2.07;;;0.90;;
20541;SDS011;10429;50.956;9.786;2022-09-09T13:19:13;2.03;;;1.00;;
20541;SDS011;10429;50.956;9.786;2022-09-09T13:21:40;1.43;;;0.90;;
20541;SDS011;10429;50.956;9.786;2022-09-09T13:29:52;1.30;;;0.87;;
20541;SDS011;10429;50.956;9.786;2022-09-09T13:32:22;2.70;;;1.13;;
20541;SDS011;10429;50.956;9.786;2022-09-09T13:34:52;2.53;;;1.23;;
20541;SDS011;10429;50.956;9.786;2022-09-09T13:37:22;3.43;;;1.20;;
20541;SDS011;10429;50.956;9.786;2022-09-09T13:39:52;2.07;;;0.97;;
20541;SDS011;10429;50.956;9.786;2022-09-09T13:42:39;3.40;;;0.97;;
20541;SDS011;10429;50.956;9.786;2022-09-09T13:45:05;2.77;;;1.10;;
20541;SDS011;10429;50.956;9.786;2022-09-09T13:47:34;3.47;;;1.10;;
20541;SDS011;10429;50.956;9.786;2022-09-09T13:50:18;2.17;;;1.00;;
20541;SDS011;10429;50.956;9.786;2022-09-09T13:52:45;1.80;;;0.90;;
20541;SDS011;10429;50.956;9.786;2022-09-09T13:55:12;2.57;;;1.03;;
20541;SDS011;10429;50.956;9.786;2022-09-09T13:57:38;3.50;;;1.27;;
20541;SDS011;10429;50.956;9.786;2022-09-09T14:00:09;2.07;;;1.07;;
20541;SDS011;10429;50.956;9.786;2022-09-09T14:02:37;2.23;;;0.93;;
20541;SDS011;10429;50.956;9.786;2022-09-09T14:05:05;1.73;;;1.00;;
20541;SDS011;10429;50.956;9.786;2022-09-09T14:07:32;2.20;;;1.00;;
20541;SDS011;10429;50.956;9.786;2022-09-09T14:09:58;2.43;;;1.10;;
20541;SDS011;10429;50.956;9.786;2022-09-09T14:12:25;1.90;;;0.93;;
20541;SDS011;10429;50.956;9.786;2022-09-09T14:14:51;2.70;;;0.90;;
20541;SDS011;10429;50.956;9.786;2022-09-09T14:17:17;2.43;;;1.00;;
20541;SDS011;10429;50.956;9.786;2022-09-09T14:19:43;2.37;;;0.80;;
20541;SDS011;10429;50.956;9.786;2022-09-09T14:22:10;2.53;;;0.90;;
20541;SDS011;10429;50.956;9.786;2022-09-09T14:24:37;3.60;;;1.10;;
20541;SDS011;10429;50.956;9.786;2022-09-09T14:27:03;2.87;;;1.17;;
20541;SDS011;10429;50.956;9.786;2022-09-09T14:29:29;2.87;;;1.07;;
20541;SDS011;10429;50.956;9.786;2022-09-09T14:31:55;1.70;;;1.00;;
20541;SDS011;10429;50.956;9.786;2022-09-09T14:34:21;2.30;;;0.90;;
20541;SDS011;10429;50.956;9.786;2022-09-09T14:36:47;1.40;;;0.80;;
20541;SDS011;10429;50.956;9.786;2022-09-09T14:39:13;1.27;;;0.90;;
20541;SDS011;10429;50.956;9.786;2022-09-09T14:41:39;1.93;;;1.10;;
20541;SDS011;10429;50.956;9.786;2022-09-09T14:44:05;1.17;;;1.07;;
20541;SDS011;10429;50.956;9.786;2022-09-09T14:46:31;3.03;;;1.30;;
20541;SDS011;10429;50.956;9.786;2022-09-09T14:48:58;3.77;;;1.17;;
20541;SDS011;10429;50.956;9.786;2022-09-09T14:51:24;2.90;;;1.07;;
20541;SDS011;10429;50.956;9.786;2022-09-09T14:53:54;4.40;;;1.73;;
20541;SDS011;10429;50.956;9.786;2022-09-09T14:56:22;2.17;;;1.17;;
20541;SDS011;10429;50.956;9.786;2022-09-09T14:58:49;1.77;;;0.93;;
20541;SDS011;10429;50.956;9.786;2022-09-09T15:01:17;2.17;;;1.30;;
20541;SDS011;10429;50.956;9.786;2022-09-09T15:03:48;2.27;;;1.03;;
20541;SDS011;10429;50.956;9.786;2022-09-09T15:06:15;4.10;;;1.10;;
20541;SDS011;10429;50.956;9.786;2022-09-09T15:08:41;3.03;;;0.90;;
20541;SDS011;10429;50.956;9.786;2022-09-09T15:11:08;2.00;;;0.90;;
20541;SDS011;10429;50.956;9.786;2022-09-09T15:13:35;3.53;;;1.13;;
20541;SDS011;10429;50.956;9.786;2022-09-09T15:16:05;1.50;;;0.87;;
20541;SDS011;10429;50.956;9.786;2022-09-09T15:18:32;1.80;;;1.10;;
20541;SDS011;10429;50.956;9.786;2022-09-09T15:21:07;2.07;;;0.90;;
20541;SDS011;10429;50.956;9.786;2022-09-09T15:23:34;3.80;;;1.10;;
20541;SDS011;10429;50.956;9.786;2022-09-09T15:26:01;3.53;;;1.00;;
20541;SDS011;10429;50.956;9.786;2022-09-09T15:28:27;3.20;;;1.23;;
20541;SDS011;10429;50.956;9.786;2022-09-09T15:30:53;1.60;;;1.00;;
20541;SDS011;10429;50.956;9.786;2022-09-09T15:33:20;2.90;;;1.07;;
20541;SDS011;10429;50.956;9.786;2022-09-09T15:35:47;4.07;;;1.10;;
20541;SDS011;10429;50.956;9.786;2022-09-09T15:38:15;2.80;;;0.97;;
20541;SDS011;10429;50.956;9.786;2022-09-09T15:40:41;2.70;;;1.03;;
20541;SDS011;10429;50.956;9.786;2022-09-09T15:43:08;1.70;;;0.97;;
20541;SDS011;10429;50.956;9.786;2022-09-09T15:45:35;3.13;;;1.13;;
20541;SDS011;10429;50.956;9.786;2022-09-09T15:48:02;2.33;;;1.20;;
20541;SDS011;10429;50.956;9.786;2022-09-09T15:50:28;2.47;;;0.90;;
20541;SDS011;10429;50.956;9.786;2022-09-09T15:52:56;0.80;;;0.60;;
20541;SDS011;10429;50.956;9.786;2022-09-09T15:55:22;2.90;;;1.10;;
20541;SDS011;10429;50.956;9.786;2022-09-09T15:57:51;2.63;;;0.80;;
20541;SDS011;10429;50.956;9.786;2022-09-09T16:00:20;1.50;;;0.90;;
20541;SDS011;10429;50.956;9.786;2022-09-09T16:02:48;1.43;;;0.70;;
20541;SDS011;10429;50.956;9.786;2022-09-09T16:05:14;1.17;;;0.80;;
20541;SDS011;10429;50.956;9.786;2022-09-09T16:07:40;1.53;;;0.70;;
20541;SDS011;10429;50.956;9.786;2022-09-09T16:10:07;2.90;;;0.83;;
20541;SDS011;10429;50.956;9.786;2022-09-09T16:12:34;3.50;;;0.80;;
20541;SDS011;10429;50.956;9.786;2022-09-09T16:15:00;1.43;;;0.60;;
20541;SDS011;10429;50.956;9.786;2022-09-09T16:17:26;4.77;;;0.73;;
20541;SDS011;10429;50.956;9.786;2022-09-09T16:19:52;1.37;;;0.70;;
20541;SDS011;10429;50.956;9.786;2022-09-09T16:22:19;1.97;;;0.80;;
20541;SDS011;10429;50.956;9.786;2022-09-09T16:24:45;2.43;;;0.87;;
20541;SDS011;10429;50.956;9.786;2022-09-09T16:27:13;2.10;;;0.80;;
20541;SDS011;10429;50.956;9.786;2022-09-09T16:29:39;1.90;;;0.90;;
20541;SDS011;10429;50.956;9.786;2022-09-09T16:32:06;2.10;;;0.63;;
20541;SDS011;10429;50.956;9.786;2022-09-09T16:34:33;2.23;;;0.93;;
20541;SDS011;10429;50.956;9.786;2022-09-09T16:36:59;2.30;;;0.87;;
20541;SDS011;10429;50.956;9.786;2022-09-09T16:39:26;4.00;;;1.00;;
20541;SDS011;10429;50.956;9.786;2022-09-09T16:41:52;3.03;;;0.80;;
20541;SDS011;10429;50.956;9.786;2022-09-09T16:44:18;1.47;;;0.57;;
20541;SDS011;10429;50.956;9.786;2022-09-09T16:46:45;1.90;;;0.80;;
20541;SDS011;10429;50.956;9.786;2022-09-09T16:49:13;1.60;;;0.80;;
20541;SDS011;10429;50.956;9.786;2022-09-09T16:51:42;4.40;;;1.10;;
20541;SDS011;10429;50.956;9.786;2022-09-09T16:54:09;1.90;;;0.97;;
20541;SDS011;10429;50.956;9.786;2022-09-09T16:56:37;2.33;;;1.10;;
20541;SDS011;10429;50.956;9.786;2022-09-09T16:59:06;3.47;;;1.00;;
20541;SDS011;10429;50.956;9.786;2022-09-09T17:01:34;1.87;;;0.70;;
20541;SDS011;10429;50.956;9.786;2022-09-09T17:04:04;2.30;;;0.70;;
20541;SDS011;10429;50.956;9.786;2022-09-09T17:06:32;4.30;;;1.00;;
20541;SDS011;10429;50.956;9.786;2022-09-09T17:09:03;2.13;;;0.83;;
20541;SDS011;10429;50.956;9.786;2022-09-09T17:11:29;3.43;;;0.90;;
20541;SDS011;10429;50.956;9.786;2022-09-09T17:13:56;2.43;;;0.80;;